createdAt,value
2023-03-02T00:00:48.263Z,1.68
2023-03-02T00:01:50.108Z,1.68
2023-03-02T00:02:52.014Z,1.68
2023-03-02T00:03:54.316Z,1.67
2023-03-02T00:04:57.711Z,1.69
2023-03-02T00:05:59.964Z,1.72
2023-03-02T00:07:04.288Z,1.72
2023-03-02T00:08:06.175Z,1.74
2023-03-02T00:09:08.119Z,1.78
2023-03-02T00:10:10.537Z,1.79
2023-03-02T00:11:12.934Z,1.82
2023-03-02T00:12:16.087Z,1.82
2023-03-02T00:13:17.798Z,1.84
2023-03-02T00:14:19.574Z,1.85
2023-03-02T00:15:21.567Z,1.80
2023-03-02T00:16:23.893Z,1.82
2023-03-02T00:17:28.651Z,1.85
2023-03-02T00:18:30.509Z,1.85
2023-03-02T00:19:32.203Z,1.84
2023-03-02T00:20:35.978Z,1.81
2023-03-02T00:21:37.765Z,1.78
2023-03-02T00:22:40.530Z,1.77
2023-03-02T00:23:42.293Z,1.78
2023-03-02T00:24:44.135Z,1.78
2023-03-02T00:25:45.973Z,1.78
2023-03-02T00:26:47.777Z,1.78
2023-03-02T00:27:49.649Z,1.79
2023-03-02T00:28:51.465Z,1.79
2023-03-02T00:29:53.296Z,1.76
2023-03-02T00:30:55.187Z,1.67
2023-03-02T00:31:57.055Z,1.64
2023-03-02T00:32:58.943Z,1.57
2023-03-02T00:34:00.766Z,1.49
2023-03-02T00:35:02.545Z,1.44
2023-03-02T00:36:04.516Z,1.43
2023-03-02T00:37:06.366Z,1.45
2023-03-02T00:38:08.687Z,1.48
2023-03-02T00:39:10.507Z,1.48
2023-03-02T00:40:12.435Z,1.50
2023-03-02T00:41:15.015Z,1.54
2023-03-02T00:42:16.850Z,1.59
2023-03-02T00:43:18.759Z,1.64
2023-03-02T00:44:20.564Z,1.65
2023-03-02T00:45:22.337Z,1.64
2023-03-02T00:46:24.853Z,1.58
2023-03-02T00:47:26.624Z,1.57
2023-03-02T00:48:28.507Z,1.60
2023-03-02T00:49:30.431Z,1.55
2023-03-02T00:50:32.404Z,1.47
2023-03-02T00:51:34.256Z,1.38
2023-03-02T00:52:36.045Z,1.44
2023-03-02T00:53:38.471Z,1.46
2023-03-02T00:54:40.278Z,1.47
2023-03-02T00:55:42.087Z,1.51
2023-03-02T00:56:43.934Z,1.49
2023-03-02T00:57:55.064Z,1.51
2023-03-02T00:58:56.960Z,1.57
2023-03-02T00:59:58.875Z,1.51
2023-03-02T01:01:05.077Z,1.55
2023-03-02T01:02:07.500Z,1.56
2023-03-02T01:03:09.395Z,1.54
2023-03-02T01:04:11.309Z,1.55
2023-03-02T01:05:13.138Z,1.53
2023-03-02T01:06:16.520Z,1.51
2023-03-02T01:07:18.903Z,1.47
2023-03-02T01:08:20.636Z,1.50
2023-03-02T01:09:22.620Z,1.50
2023-03-02T01:10:24.446Z,1.51
2023-03-02T01:11:26.217Z,1.55
2023-03-02T01:12:27.960Z,1.57
2023-03-02T01:13:29.770Z,1.54
2023-03-02T01:14:32.288Z,1.54
2023-03-02T01:15:34.935Z,1.55
2023-03-02T01:16:37.795Z,1.53
2023-03-02T01:17:41.596Z,1.54
2023-03-02T01:18:43.518Z,1.34
2023-03-02T01:19:45.323Z,1.27
2023-03-02T01:20:47.089Z,1.28
2023-03-02T01:21:48.987Z,1.35
2023-03-02T01:22:50.974Z,1.43
2023-03-02T01:23:52.836Z,1.53
2023-03-02T01:24:54.606Z,1.59
2023-03-02T01:25:56.431Z,1.60
2023-03-02T01:26:58.406Z,1.54
2023-03-02T01:28:00.240Z,1.53
2023-03-02T01:29:02.061Z,1.56
2023-03-02T01:30:04.031Z,1.62
2023-03-02T01:31:05.989Z,1.64
2023-03-02T01:32:07.917Z,1.63
2023-03-02T01:33:09.777Z,1.64
2023-03-02T01:34:11.554Z,1.67
2023-03-02T01:35:13.623Z,1.72
2023-03-02T01:36:15.498Z,1.75
2023-03-02T01:37:17.322Z,1.76
2023-03-02T01:38:19.131Z,1.75
2023-03-02T01:39:22.761Z,1.70
2023-03-02T01:40:26.154Z,1.69
2023-03-02T01:41:28.043Z,1.70
2023-03-02T01:42:34.451Z,1.71
2023-03-02T01:43:36.311Z,1.70
2023-03-02T01:44:43.344Z,1.70
2023-03-02T01:45:47.531Z,1.75
2023-03-02T01:46:49.375Z,1.71
2023-03-02T01:47:51.189Z,1.70
2023-03-02T01:48:56.796Z,1.65
2023-03-02T01:50:17.310Z,1.67
2023-03-02T01:51:21.099Z,1.72
2023-03-02T01:52:26.252Z,1.79
2023-03-02T01:53:29.783Z,1.85
2023-03-02T01:54:31.854Z,1.86
2023-03-02T01:55:34.365Z,1.87
2023-03-02T01:56:38.789Z,1.90
2023-03-02T01:57:46.273Z,1.90
2023-03-02T01:58:51.447Z,1.88
2023-03-02T01:59:57.019Z,1.83
2023-03-02T02:00:58.954Z,1.79
2023-03-02T02:02:02.095Z,1.79
2023-03-02T02:03:09.421Z,1.79
2023-03-02T02:04:11.692Z,1.81
2023-03-02T02:05:19.305Z,1.77
2023-03-02T02:06:25.224Z,1.78
2023-03-02T02:07:28.793Z,1.84
2023-03-02T02:08:30.724Z,1.87
2023-03-02T02:09:34.947Z,1.90
2023-03-02T02:10:37.282Z,1.92
2023-03-02T02:11:39.259Z,1.89
2023-03-02T02:12:41.029Z,1.90
2023-03-02T02:13:42.875Z,1.94
2023-03-02T02:14:45.726Z,1.97
2023-03-02T02:15:47.518Z,1.98
2023-03-02T02:16:49.334Z,1.99
2023-03-02T02:17:52.290Z,2.00
2023-03-02T02:18:54.174Z,2.02
2023-03-02T02:20:07.961Z,2.05
2023-03-02T02:21:09.863Z,2.07
2023-03-02T02:22:12.342Z,2.08
2023-03-02T02:23:17.246Z,2.10
2023-03-02T02:24:26.020Z,2.06
2023-03-02T02:25:39.965Z,2.03
2023-03-02T02:26:47.243Z,2.06
2023-03-02T02:27:48.994Z,2.02
2023-03-02T02:28:58.122Z,1.94
2023-03-02T02:30:01.896Z,1.93
2023-03-02T02:31:18.434Z,1.93
2023-03-02T02:32:24.528Z,1.94
2023-03-02T02:33:26.901Z,1.98
2023-03-02T02:34:33.789Z,2.03
2023-03-02T02:35:38.869Z,2.05
2023-03-02T02:36:42.749Z,2.04
2023-03-02T02:37:59.588Z,1.99
2023-03-02T02:39:04.018Z,1.99
2023-03-02T02:40:07.695Z,1.98
2023-03-02T02:41:13.432Z,1.98
2023-03-02T02:42:17.820Z,1.96
2023-03-02T02:43:21.722Z,1.98
2023-03-02T02:44:23.531Z,2.00
2023-03-02T02:45:26.280Z,2.01
2023-03-02T02:46:28.205Z,2.05
2023-03-02T02:47:30.143Z,2.05
2023-03-02T02:48:32.769Z,2.05
2023-03-02T02:49:35.924Z,2.02
2023-03-02T02:50:38.458Z,1.96
2023-03-02T02:51:40.246Z,1.92
2023-03-02T02:52:42.119Z,1.90
2023-03-02T02:54:00.838Z,1.93
2023-03-02T02:55:03.173Z,1.87
2023-03-02T02:56:06.937Z,1.87
2023-03-02T02:57:11.507Z,1.87
2023-03-02T02:58:25.326Z,1.91
2023-03-02T02:59:29.344Z,1.94
2023-03-02T03:00:31.180Z,1.95
2023-03-02T03:01:33.883Z,1.99
2023-03-02T03:02:42.159Z,2.01
2023-03-02T03:03:46.324Z,1.97
2023-03-02T03:04:48.203Z,1.86
2023-03-02T03:05:49.989Z,1.83
2023-03-02T03:06:51.899Z,1.87
2023-03-02T03:07:53.752Z,1.91
2023-03-02T03:08:57.348Z,1.94
2023-03-02T03:10:05.453Z,1.92
2023-03-02T03:11:08.296Z,1.91
2023-03-02T03:12:17.820Z,1.95
2023-03-02T03:13:19.651Z,1.98
2023-03-02T03:14:25.390Z,2.01
2023-03-02T03:15:27.221Z,2.02
2023-03-02T03:16:30.700Z,2.02
2023-03-02T03:17:32.893Z,1.96
2023-03-02T03:18:34.681Z,1.95
2023-03-02T03:19:36.611Z,1.98
2023-03-02T03:20:38.332Z,1.99
2023-03-02T03:21:40.179Z,1.97
2023-03-02T03:22:42.053Z,1.99
2023-03-02T03:23:43.987Z,2.00
2023-03-02T03:24:46.078Z,1.98
2023-03-02T03:25:47.853Z,1.96
2023-03-02T03:26:50.025Z,1.94
2023-03-02T03:27:51.889Z,1.91
2023-03-02T03:28:53.745Z,1.85
2023-03-02T03:29:55.633Z,1.87
2023-03-02T03:30:57.497Z,1.87
2023-03-02T03:32:00.132Z,1.89
2023-03-02T03:33:02.203Z,1.90
2023-03-02T03:34:04.046Z,1.89
2023-03-02T03:35:08.916Z,1.86
2023-03-02T03:36:10.744Z,1.88
2023-03-02T03:37:14.313Z,1.87
2023-03-02T03:38:16.858Z,1.85
2023-03-02T03:39:18.720Z,1.86
2023-03-02T03:40:20.619Z,1.90
2023-03-02T03:41:22.396Z,1.89
2023-03-02T03:42:24.436Z,1.87
2023-03-02T03:43:26.301Z,1.82
2023-03-02T03:44:28.691Z,1.70
2023-03-02T03:45:31.241Z,1.73
2023-03-02T03:46:33.802Z,1.79
2023-03-02T03:47:36.542Z,1.77
2023-03-02T03:48:38.458Z,1.74
2023-03-02T03:49:40.186Z,1.68
2023-03-02T03:50:41.984Z,1.69
2023-03-02T03:51:43.839Z,1.70
2023-03-02T03:52:45.702Z,1.69
2023-03-02T03:54:00.179Z,1.70
2023-03-02T03:55:02.517Z,1.72
2023-03-02T03:56:04.936Z,1.69
2023-03-02T03:57:06.669Z,1.68
2023-03-02T03:58:08.471Z,1.70
2023-03-02T03:59:12.582Z,1.71
2023-03-02T04:00:17.905Z,1.65
2023-03-02T04:01:19.776Z,1.65
2023-03-02T04:02:22.437Z,1.64
2023-03-02T04:03:24.373Z,1.66
2023-03-02T04:04:31.353Z,1.67
2023-03-02T04:05:33.231Z,1.71
2023-03-02T04:06:35.394Z,1.70
2023-03-02T04:07:37.871Z,1.68
2023-03-02T04:08:40.274Z,1.72
2023-03-02T04:09:42.335Z,1.75
2023-03-02T04:10:44.261Z,1.69
2023-03-02T04:11:47.547Z,1.65
2023-03-02T04:12:49.327Z,1.64
2023-03-02T04:13:51.094Z,1.66
2023-03-02T04:14:52.922Z,1.69
2023-03-02T04:15:54.751Z,1.72
2023-03-02T04:16:56.677Z,1.75
2023-03-02T04:17:58.516Z,1.75
2023-03-02T04:19:00.927Z,1.78
2023-03-02T04:20:02.897Z,1.76
2023-03-02T04:21:04.784Z,1.57
2023-03-02T04:22:06.534Z,1.55
2023-03-02T04:23:08.404Z,1.58
2023-03-02T04:24:10.332Z,1.63
2023-03-02T04:25:13.230Z,1.67
2023-03-02T04:26:15.033Z,1.71
2023-03-02T04:27:17.324Z,1.73
2023-03-02T04:28:19.188Z,1.73
2023-03-02T04:29:21.089Z,1.68
2023-03-02T04:30:24.507Z,1.65
2023-03-02T04:31:26.423Z,1.64
2023-03-02T04:32:28.280Z,1.54
2023-03-02T04:33:30.068Z,1.47
2023-03-02T04:34:32.361Z,1.47
2023-03-02T04:35:34.569Z,1.49
2023-03-02T04:36:38.036Z,1.51
2023-03-02T04:37:40.917Z,1.54
2023-03-02T04:38:42.894Z,1.59
2023-03-02T04:39:47.571Z,1.59
2023-03-02T04:40:49.325Z,1.62
2023-03-02T04:41:51.211Z,1.60
2023-03-02T04:42:53.051Z,1.61
2023-03-02T04:43:54.969Z,1.56
2023-03-02T04:44:56.756Z,1.56
2023-03-02T04:45:58.844Z,1.60
2023-03-02T04:47:00.629Z,1.60
2023-03-02T04:48:02.412Z,1.48
2023-03-02T04:49:04.673Z,1.47
2023-03-02T04:50:06.865Z,1.45
2023-03-02T04:51:13.337Z,1.49
2023-03-02T04:52:15.065Z,1.52
2023-03-02T04:53:17.068Z,1.53
2023-03-02T04:54:24.172Z,1.55
2023-03-02T04:55:26.939Z,1.58
2023-03-02T04:56:29.133Z,1.58
2023-03-02T04:57:31.036Z,1.51
2023-03-02T04:58:32.804Z,1.43
2023-03-02T04:59:35.138Z,1.43
2023-03-02T05:00:37.129Z,1.44
2023-03-02T05:01:38.979Z,1.44
2023-03-02T05:02:41.607Z,1.47
2023-03-02T05:03:43.528Z,1.49
2023-03-02T05:04:45.425Z,1.49
2023-03-02T05:05:47.205Z,1.43
2023-03-02T05:06:49.009Z,1.42
2023-03-02T05:07:51.232Z,1.41
2023-03-02T05:08:53.588Z,1.43
2023-03-02T05:09:55.497Z,1.47
2023-03-02T05:10:58.495Z,1.49
2023-03-02T05:12:00.750Z,1.54
2023-03-02T05:13:03.012Z,1.57
2023-03-02T05:14:05.933Z,1.53
2023-03-02T05:15:07.932Z,1.38
2023-03-02T05:16:09.737Z,1.34
2023-03-02T05:17:11.536Z,1.30
2023-03-02T05:18:13.630Z,1.29
2023-03-02T05:19:15.506Z,1.32
2023-03-02T05:20:17.655Z,1.36
2023-03-02T05:21:19.423Z,1.39
2023-03-02T05:22:21.202Z,1.36
2023-03-02T05:23:27.312Z,1.38
2023-03-02T05:24:29.149Z,1.41
2023-03-02T05:25:31.868Z,1.34
2023-03-02T05:26:34.012Z,1.23
2023-03-02T05:27:37.110Z,1.18
2023-03-02T05:28:39.005Z,1.17
2023-03-02T05:29:40.869Z,1.09
2023-03-02T05:30:42.770Z,1.08
2023-03-02T05:31:45.183Z,1.13
2023-03-02T05:32:47.354Z,1.17
2023-03-02T05:33:49.134Z,1.20
2023-03-02T05:34:50.853Z,1.15
2023-03-02T05:35:52.679Z,1.16
2023-03-02T05:36:54.520Z,1.12
2023-03-02T05:37:56.335Z,1.10
2023-03-02T05:38:58.593Z,1.15
2023-03-02T05:40:00.463Z,1.20
2023-03-02T05:41:02.254Z,1.25
2023-03-02T05:42:04.134Z,1.25
2023-03-02T05:43:05.895Z,1.21
2023-03-02T05:44:10.304Z,1.20
2023-03-02T05:45:21.705Z,1.17
2023-03-02T05:46:23.873Z,1.16
2023-03-02T05:47:25.696Z,1.18
2023-03-02T05:48:28.275Z,1.21
2023-03-02T05:49:30.164Z,1.19
2023-03-02T05:50:31.990Z,1.19
2023-03-02T05:51:33.793Z,1.19
2023-03-02T05:52:35.565Z,1.15
2023-03-02T05:53:37.337Z,1.09
2023-03-02T05:54:39.144Z,1.02
2023-03-02T05:55:40.955Z,1.03
2023-03-02T05:56:42.743Z,1.06
2023-03-02T05:57:45.263Z,1.11
2023-03-02T05:58:47.026Z,1.10
2023-03-02T05:59:51.191Z,1.14
2023-03-02T06:00:52.972Z,1.15
2023-03-02T06:01:59.083Z,1.11
2023-03-02T06:03:01.082Z,1.13
2023-03-02T06:04:03.057Z,1.12
2023-03-02T06:05:08.467Z,1.14
2023-03-02T06:06:14.518Z,1.13
2023-03-02T06:07:16.472Z,1.04
2023-03-02T06:08:19.229Z,1.06
2023-03-02T06:09:21.142Z,1.05
2023-03-02T06:10:23.377Z,1.10
2023-03-02T06:11:25.157Z,1.12
2023-03-02T06:12:27.039Z,1.15
2023-03-02T06:13:28.932Z,1.16
2023-03-02T06:14:30.726Z,1.19
2023-03-02T06:15:32.527Z,1.23
2023-03-02T06:16:34.649Z,1.23
2023-03-02T06:17:36.643Z,1.25
2023-03-02T06:18:41.289Z,1.26
2023-03-02T06:19:43.263Z,1.23
2023-03-02T06:20:45.393Z,1.19
2023-03-02T06:21:47.214Z,1.19
2023-03-02T06:22:49.080Z,1.16
2023-03-02T06:23:50.867Z,1.13
2023-03-02T06:24:55.391Z,1.17
2023-03-02T06:25:58.401Z,1.20
2023-03-02T06:27:00.496Z,1.23
2023-03-02T06:28:02.256Z,1.24
2023-03-02T06:29:05.612Z,1.25
2023-03-02T06:30:08.800Z,1.28
2023-03-02T06:31:10.643Z,1.26
2023-03-02T06:32:12.535Z,1.27
2023-03-02T06:33:15.940Z,1.26
2023-03-02T06:34:17.819Z,1.24
2023-03-02T06:35:19.776Z,1.17
2023-03-02T06:36:21.784Z,1.20
2023-03-02T06:37:23.646Z,1.24
2023-03-02T06:38:25.526Z,1.26
2023-03-02T06:39:27.371Z,1.28
2023-03-02T06:40:31.307Z,1.28
2023-03-02T06:41:36.639Z,1.24
2023-03-02T06:42:38.943Z,1.23
2023-03-02T06:43:40.760Z,1.27
2023-03-02T06:44:42.472Z,1.28
2023-03-02T06:45:44.328Z,1.30
2023-03-02T06:46:46.123Z,1.33
2023-03-02T06:47:47.985Z,1.29
2023-03-02T06:48:49.724Z,1.29
2023-03-02T06:49:51.491Z,1.29
2023-03-02T06:50:53.288Z,1.28
2023-03-02T06:51:55.083Z,1.30
2023-03-02T06:52:56.964Z,1.32
2023-03-02T06:53:58.862Z,1.29
2023-03-02T06:55:00.887Z,1.23
2023-03-02T06:56:02.699Z,1.22
2023-03-02T06:57:04.684Z,1.26
2023-03-02T06:58:06.604Z,1.31
2023-03-02T06:59:08.568Z,1.33
2023-03-02T07:00:15.668Z,1.31
2023-03-02T07:01:17.598Z,1.32
2023-03-02T07:02:19.493Z,1.35
2023-03-02T07:03:21.334Z,1.37
2023-03-02T07:04:23.219Z,1.40
2023-03-02T07:05:25.223Z,1.43
2023-03-02T07:06:27.012Z,1.45
2023-03-02T07:07:28.847Z,1.43
2023-03-02T07:08:30.741Z,1.40
2023-03-02T07:09:33.437Z,1.40
2023-03-02T07:10:35.296Z,1.40
2023-03-02T07:11:37.140Z,1.42
2023-03-02T07:12:39.283Z,1.42
2023-03-02T07:13:41.326Z,1.43
2023-03-02T07:14:43.147Z,1.40
2023-03-02T07:15:45.036Z,1.35
2023-03-02T07:16:46.948Z,1.37
2023-03-02T07:17:48.932Z,1.39
2023-03-02T07:18:50.734Z,1.39
2023-03-02T07:19:52.554Z,1.35
2023-03-02T07:20:54.318Z,1.34
2023-03-02T07:21:56.096Z,1.35
2023-03-02T07:22:58.154Z,1.38
2023-03-02T07:23:59.970Z,1.39
2023-03-02T07:25:01.908Z,1.41
2023-03-02T07:26:08.740Z,1.43
2023-03-02T07:27:10.602Z,1.46
2023-03-02T07:28:12.407Z,1.46
2023-03-02T07:29:14.270Z,1.38
2023-03-02T07:30:16.176Z,1.35
2023-03-02T07:31:18.223Z,1.38
2023-03-02T07:32:20.156Z,1.39
2023-03-02T07:33:22.546Z,1.33
2023-03-02T07:34:25.354Z,1.33
2023-03-02T07:35:27.245Z,1.38
2023-03-02T07:36:29.200Z,1.42
2023-03-02T07:37:31.014Z,1.46
2023-03-02T07:38:32.926Z,1.53
2023-03-02T07:39:34.782Z,1.57
2023-03-02T07:40:40.094Z,1.58
2023-03-02T07:41:41.913Z,1.61
2023-03-02T07:42:43.722Z,1.64
2023-03-02T07:43:45.524Z,1.64
2023-03-02T07:44:47.505Z,1.56
2023-03-02T07:45:49.266Z,1.54
2023-03-02T07:46:51.154Z,1.60
2023-03-02T07:47:53.059Z,1.72
2023-03-02T07:48:54.865Z,1.76
2023-03-02T07:49:56.843Z,1.83
2023-03-02T07:51:02.482Z,1.89
2023-03-02T07:52:04.568Z,1.88
2023-03-02T07:53:06.369Z,1.91
2023-03-02T07:54:08.361Z,2.00
2023-03-02T07:55:10.580Z,2.06
2023-03-02T07:56:12.499Z,2.11
2023-03-02T07:57:16.475Z,2.14
2023-03-02T07:58:18.355Z,2.19
2023-03-02T07:59:20.181Z,2.21
2023-03-02T08:00:22.179Z,2.22
2023-03-02T08:01:24.184Z,2.25
2023-03-02T08:02:26.131Z,2.25
2023-03-02T08:03:27.915Z,2.32
2023-03-02T08:04:29.736Z,2.42
2023-03-02T08:05:31.592Z,2.49
2023-03-02T08:06:33.387Z,2.58
2023-03-02T08:07:35.371Z,2.70
2023-03-02T08:08:37.474Z,2.76
2023-03-02T08:09:39.984Z,2.84
2023-03-02T08:10:42.229Z,2.92
2023-03-02T08:11:45.113Z,2.90
2023-03-02T08:12:46.992Z,2.85
2023-03-02T08:13:48.887Z,2.78
2023-03-02T08:14:50.734Z,2.74
2023-03-02T08:15:59.343Z,2.75
2023-03-02T08:17:01.321Z,2.79
2023-03-02T10:28:22.044Z,11.85
2023-03-02T10:29:23.851Z,11.98
2023-03-02T10:30:34.241Z,12.05
2023-03-02T10:31:40.155Z,12.16
2023-03-02T10:32:52.242Z,12.26
2023-03-02T10:33:54.167Z,12.38
2023-03-02T10:34:56.162Z,12.44
2023-03-02T10:36:01.304Z,12.51
2023-03-02T10:37:03.318Z,12.57
2023-03-02T10:38:12.694Z,12.69
2023-03-02T10:39:16.076Z,12.79
2023-03-02T10:40:29.868Z,12.89
2023-03-02T10:41:33.484Z,13.02
2023-03-02T10:42:43.151Z,13.05
2023-03-02T10:43:53.064Z,13.06
2023-03-02T10:45:22.154Z,13.08
2023-03-02T10:46:24.197Z,13.11
2023-03-02T10:47:27.805Z,13.12
2023-03-02T10:48:29.832Z,13.19
2023-03-02T10:49:36.518Z,13.29
2023-03-02T10:50:39.020Z,13.39
2023-03-02T10:51:42.934Z,13.45
2023-03-02T10:52:59.756Z,13.52
2023-03-02T10:54:05.566Z,13.64
2023-03-02T10:55:14.769Z,13.75
2023-03-02T10:56:21.068Z,13.81
2023-03-02T10:57:25.740Z,13.90
2023-03-02T10:58:32.296Z,13.99
2023-03-02T10:59:47.285Z,14.11
2023-03-02T11:00:56.395Z,14.15
2023-03-02T11:02:18.731Z,14.27
2023-03-02T11:03:21.534Z,14.39
2023-03-02T11:04:23.472Z,14.51
2023-03-02T11:05:30.743Z,14.64
2023-03-02T11:06:33.883Z,14.70
2023-03-02T11:07:36.355Z,14.73
2023-03-02T11:08:38.265Z,14.82
2023-03-02T11:09:40.221Z,14.90
2023-03-02T11:10:52.305Z,14.94
2023-03-02T11:11:55.722Z,14.99
2023-03-02T11:12:58.556Z,15.08
2023-03-02T11:14:14.840Z,15.07
2023-03-02T11:15:19.299Z,15.16
2023-03-02T11:16:29.061Z,15.23
2023-03-02T11:17:33.270Z,15.28
2023-03-02T11:18:38.009Z,15.27
2023-03-02T11:19:41.632Z,15.33
2023-03-02T11:20:45.979Z,15.49
2023-03-02T11:21:51.960Z,15.55
2023-03-02T11:22:56.867Z,15.61
2023-03-02T11:24:05.067Z,15.68
2023-03-02T11:25:08.646Z,15.70
2023-03-02T11:26:21.743Z,15.74
2023-03-02T11:27:31.854Z,15.79
2023-03-02T11:28:41.149Z,15.68
2023-03-02T11:29:42.996Z,15.77
2023-03-02T11:30:48.462Z,15.87
2023-03-02T11:31:55.840Z,15.92
2023-03-02T11:33:04.522Z,15.86
2023-03-02T11:34:17.301Z,15.65
2023-03-02T11:35:23.061Z,15.59
2023-03-02T11:36:30.929Z,15.65
2023-03-02T11:37:35.753Z,15.51
2023-03-02T11:38:43.499Z,15.57
2023-03-02T11:39:54.984Z,15.73
2023-03-02T11:41:00.803Z,15.76
2023-03-02T11:42:02.804Z,15.99
2023-03-02T11:43:07.790Z,16.19
2023-03-02T11:44:14.595Z,16.32
2023-03-02T11:45:22.471Z,16.45
2023-03-02T11:46:30.874Z,16.64
2023-03-02T11:47:33.258Z,16.76
2023-03-02T11:48:35.230Z,16.75
2023-03-02T11:49:40.377Z,16.89
2023-03-02T11:51:02.556Z,17.04
2023-03-02T11:52:04.702Z,17.13
2023-03-02T11:53:10.681Z,17.09
2023-03-02T11:54:29.883Z,17.05
2023-03-02T11:55:34.470Z,17.06
2023-03-02T11:56:38.719Z,17.18
2023-03-02T11:57:48.693Z,17.28
2023-03-02T11:58:54.404Z,17.23
2023-03-02T11:59:57.175Z,17.35
2023-03-02T12:00:59.929Z,17.57
2023-03-02T12:02:02.457Z,17.57
2023-03-02T12:03:06.180Z,17.38
2023-03-02T12:04:12.074Z,17.46
2023-03-02T12:05:25.382Z,17.56
2023-03-02T12:06:28.997Z,17.76
2023-03-02T12:07:31.510Z,17.51
2023-03-02T12:08:33.271Z,17.55
2023-03-02T12:09:37.660Z,17.57
2023-03-02T12:10:41.113Z,17.70
2023-03-02T12:11:45.600Z,17.87
2023-03-02T12:12:48.484Z,17.96
2023-03-02T12:14:00.506Z,17.97
2023-03-02T12:15:02.394Z,18.03
2023-03-02T12:16:24.458Z,18.05
2023-03-02T12:17:26.328Z,18.06
2023-03-02T12:18:29.826Z,18.11
2023-03-02T12:19:42.186Z,18.21
2023-03-02T12:20:44.019Z,18.27
2023-03-02T12:21:59.175Z,18.24
2023-03-02T12:23:08.737Z,18.34
2023-03-02T12:24:32.452Z,18.28
2023-03-02T12:25:40.057Z,18.44
2023-03-02T12:26:42.077Z,18.52
2023-03-02T12:27:44.248Z,18.66
2023-03-02T12:29:15.426Z,18.91
2023-03-02T12:30:18.694Z,18.88
2023-03-02T12:31:20.651Z,18.73
2023-03-02T12:32:27.276Z,18.64
2023-03-02T12:33:29.186Z,18.66
2023-03-02T12:34:34.797Z,18.68
2023-03-02T12:35:37.281Z,18.72
2023-03-02T12:36:43.508Z,18.72
2023-03-02T12:37:47.792Z,18.68
2023-03-02T12:39:12.940Z,18.60
2023-03-02T12:40:27.119Z,18.28
2023-03-02T12:41:39.364Z,18.41
2023-03-02T12:42:59.849Z,18.57
2023-03-02T12:44:07.567Z,18.43
2023-03-02T12:45:28.196Z,18.15
2023-03-02T12:46:32.133Z,17.83
2023-03-02T12:47:34.395Z,17.86
2023-03-02T12:48:49.183Z,17.84
2023-03-02T12:49:57.096Z,17.68
2023-03-02T12:51:01.007Z,17.53
2023-03-02T12:52:04.493Z,17.40
2023-03-02T12:53:07.622Z,17.62
2023-03-02T12:54:35.923Z,17.80
2023-03-02T12:55:38.715Z,17.91
2023-03-02T12:56:44.518Z,17.94
2023-03-02T12:57:50.658Z,18.03
2023-03-02T12:58:53.513Z,17.84
2023-03-02T13:00:00.926Z,17.47
2023-03-02T13:01:03.461Z,17.36
2023-03-02T13:02:16.116Z,17.38
2023-03-02T13:03:18.915Z,17.48
2023-03-02T13:04:25.441Z,17.07
2023-03-02T13:05:29.180Z,16.69
2023-03-02T13:06:32.305Z,16.69
2023-03-02T13:07:41.453Z,16.64
2023-03-02T13:08:44.900Z,16.33
2023-03-02T13:09:57.311Z,16.15
2023-03-02T13:11:01.638Z,16.15
2023-03-02T13:12:03.663Z,16.12
2023-03-02T13:13:22.901Z,16.05
2023-03-02T13:14:28.770Z,15.88
2023-03-02T13:15:30.694Z,15.73
2023-03-02T13:16:34.038Z,15.88
2023-03-02T13:17:36.190Z,16.06
2023-03-02T13:18:39.914Z,16.03
2023-03-02T13:19:41.742Z,16.09
2023-03-02T13:20:43.861Z,15.99
2023-03-02T13:21:45.822Z,15.89
2023-03-02T13:22:47.961Z,15.67
2023-03-02T13:23:52.180Z,15.44
2023-03-02T13:25:05.653Z,15.24
2023-03-02T13:26:07.631Z,15.03
2023-03-02T13:27:23.234Z,14.95
2023-03-02T13:28:27.820Z,14.91
2023-03-02T13:29:32.119Z,14.84
2023-03-02T13:30:35.420Z,14.66
2023-03-02T13:31:37.460Z,14.65
2023-03-02T13:32:40.628Z,14.51
2023-03-02T13:33:44.935Z,14.30
2023-03-02T13:34:51.371Z,14.23
2023-03-02T13:35:53.406Z,14.27
2023-03-02T13:36:55.374Z,14.24
2023-03-02T13:38:01.953Z,14.14
2023-03-02T13:39:07.361Z,14.26
2023-03-02T13:40:25.353Z,14.36
2023-03-02T13:41:29.220Z,14.56
2023-03-02T13:42:38.971Z,14.72
2023-03-02T13:43:40.904Z,14.97
2023-03-02T13:44:43.493Z,15.21
2023-03-02T13:45:55.781Z,15.38
2023-03-02T13:46:58.440Z,15.60
2023-03-02T13:48:01.522Z,15.72
2023-03-02T13:49:10.176Z,15.86
2023-03-02T13:50:20.556Z,15.98
2023-03-02T13:51:24.937Z,16.03
2023-03-02T13:52:28.413Z,16.14
2023-03-02T13:53:31.871Z,16.24
2023-03-02T13:54:35.356Z,16.33
2023-03-02T13:55:37.426Z,16.32
2023-03-02T13:56:44.226Z,16.36
2023-03-02T13:57:46.484Z,16.37
2023-03-02T13:58:48.383Z,16.43
2023-03-02T13:59:50.338Z,16.54
2023-03-02T14:00:52.719Z,16.59
2023-03-02T14:01:54.689Z,16.74
2023-03-02T14:02:56.669Z,16.88
2023-03-02T14:04:00.675Z,16.98
2023-03-02T14:05:02.665Z,16.97
2023-03-02T14:06:06.331Z,17.04
2023-03-02T14:07:08.216Z,17.06
2023-03-02T14:08:10.244Z,17.12
2023-03-02T14:09:12.165Z,17.05
2023-03-02T14:10:18.273Z,16.80
2023-03-02T14:11:20.235Z,16.36
2023-03-02T14:12:27.594Z,16.24
2023-03-02T14:13:35.780Z,16.16
2023-03-02T14:14:40.106Z,16.05
2023-03-02T14:15:43.621Z,15.98
2023-03-02T14:16:45.618Z,16.03
2023-03-02T14:17:49.464Z,16.04
2023-03-02T14:18:53.202Z,16.03
2023-03-02T14:19:55.845Z,16.05
2023-03-02T14:20:58.414Z,16.02
2023-03-02T14:22:00.504Z,16.03
2023-03-02T14:23:06.854Z,16.27
2023-03-02T14:24:09.535Z,16.45
2023-03-02T14:25:11.518Z,16.60
2023-03-02T14:26:32.324Z,16.88
2023-03-02T14:27:34.438Z,17.06
2023-03-02T14:28:36.453Z,17.11
2023-03-02T14:29:39.814Z,17.37
2023-03-02T14:30:44.211Z,17.71
2023-03-02T14:31:46.089Z,17.99
2023-03-02T14:32:48.361Z,18.24
2023-03-02T14:33:51.241Z,18.27
2023-03-02T14:34:53.120Z,18.16
2023-03-02T14:35:57.095Z,18.26
2023-03-02T14:36:59.866Z,18.32
2023-03-02T14:38:01.831Z,18.38
2023-03-02T14:39:05.335Z,18.23
2023-03-02T14:40:14.628Z,17.90
2023-03-02T14:41:22.236Z,17.58
2023-03-02T14:42:24.494Z,17.42
2023-03-02T14:43:26.499Z,17.36
2023-03-02T14:44:28.409Z,17.24
2023-03-02T14:45:30.929Z,17.06
2023-03-02T14:46:32.929Z,16.80
2023-03-02T14:47:34.895Z,16.57
2023-03-02T14:48:36.936Z,16.33
2023-03-02T14:49:38.948Z,16.10
2023-03-02T14:50:42.607Z,16.07
2023-03-02T14:51:45.678Z,16.01
2023-03-02T14:52:49.921Z,15.99
2023-03-02T14:53:53.258Z,15.88
2023-03-02T14:54:58.216Z,15.73
2023-03-02T14:56:00.416Z,15.66
2023-03-02T14:57:02.615Z,15.71
2023-03-02T14:58:06.295Z,15.83
2023-03-02T14:59:09.679Z,15.65
2023-03-02T15:00:15.728Z,15.64
2023-03-02T15:01:18.076Z,15.64
2023-03-02T15:02:25.696Z,15.73
2023-03-02T15:03:29.702Z,15.79
2023-03-02T15:04:31.670Z,15.69
2023-03-02T15:05:33.585Z,15.40
2023-03-02T15:06:37.711Z,15.35
2023-03-02T15:07:39.761Z,15.09
2023-03-02T15:08:41.622Z,14.92
2023-03-02T15:09:44.150Z,14.74
2023-03-02T15:10:47.265Z,14.72
2023-03-02T15:11:49.248Z,14.59
2023-03-02T15:12:51.441Z,14.51
2023-03-02T15:13:53.815Z,14.48
2023-03-02T15:14:55.819Z,14.52
2023-03-02T15:15:57.693Z,14.30
2023-03-02T15:16:59.573Z,14.11
2023-03-02T15:18:01.537Z,14.07
2023-03-02T15:19:03.462Z,13.96
2023-03-02T15:20:06.551Z,13.91
2023-03-02T15:21:12.988Z,13.92
2023-03-02T15:22:14.955Z,13.87
2023-03-02T15:23:16.870Z,13.82
2023-03-02T15:24:22.434Z,13.76
2023-03-02T15:25:26.253Z,13.54
2023-03-02T15:26:28.096Z,13.42
2023-03-02T15:27:29.889Z,13.39
2023-03-02T15:28:31.834Z,13.39
2023-03-02T15:29:33.768Z,13.40
2023-03-02T15:30:35.714Z,13.33
2023-03-02T15:31:37.600Z,13.24
2023-03-02T15:32:39.719Z,13.13
2023-03-02T15:33:42.144Z,13.10
2023-03-02T15:34:44.313Z,13.09
2023-03-02T15:35:46.496Z,13.11
2023-03-02T15:36:48.401Z,13.16
2023-03-02T15:37:50.297Z,13.18
2023-03-02T15:38:52.654Z,13.16
2023-03-02T15:39:55.605Z,13.11
2023-03-02T15:40:57.479Z,13.13
2023-03-02T15:41:59.341Z,13.06
2023-03-02T15:43:01.230Z,13.06
2023-03-02T15:44:03.125Z,13.05
2023-03-02T15:45:05.828Z,13.10
2023-03-02T15:46:09.768Z,13.14
2023-03-02T15:47:11.701Z,13.14
2023-03-02T15:48:14.391Z,13.05
2023-03-02T15:49:16.503Z,13.00
2023-03-02T15:50:18.575Z,12.93
2023-03-02T15:51:20.857Z,12.81
2023-03-02T15:52:22.789Z,12.69
2023-03-02T15:53:24.678Z,12.64
2023-03-02T15:54:27.247Z,12.56
2023-03-02T15:55:29.278Z,12.53
2023-03-02T15:56:42.440Z,12.48
2023-03-02T15:57:45.726Z,12.44
2023-03-02T15:58:48.461Z,12.41
2023-03-02T15:59:50.375Z,12.38
2023-03-02T16:00:53.884Z,12.36
2023-03-02T16:02:00.162Z,12.35
2023-03-02T16:03:02.103Z,12.34
2023-03-02T16:04:04.029Z,12.30
2023-03-02T16:05:06.191Z,12.13
2023-03-02T16:06:09.011Z,12.04
2023-03-02T16:07:11.232Z,12.02
2023-03-02T16:08:13.312Z,12.03
2023-03-02T16:09:15.651Z,11.96